createdAt,value
2018-01-27T12:52:57.119Z,19.20
2018-01-27T12:58:57.611Z,20.30
2018-01-27T13:01:24.663Z,20.20
2018-01-27T13:03:51.607Z,20.10
2018-01-27T13:06:18.470Z,19.90
2018-01-27T13:08:45.404Z,19.80
2018-01-27T13:11:12.270Z,19.90
2018-01-27T13:13:39.317Z,19.90
2018-01-27T13:16:06.272Z,19.90
2018-01-27T13:18:33.428Z,20.10
2018-01-27T13:21:00.371Z,19.90
2018-01-27T13:24:53.244Z,20.50
2018-01-27T13:27:20.167Z,20.50
2018-01-27T13:29:47.176Z,20.30
2018-01-27T13:32:13.945Z,20.70
2018-01-27T13:34:40.762Z,21.10
2018-01-27T13:37:07.743Z,21.20
2018-01-27T13:39:34.573Z,21.40
2018-01-27T13:42:01.644Z,21.30
2018-01-27T13:44:28.487Z,21.30
2018-01-27T13:46:55.305Z,21.50
2018-01-27T13:49:21.977Z,21.60
2018-01-27T13:51:48.825Z,21.30
2018-01-27T13:54:15.567Z,21.20
2018-01-27T13:56:42.570Z,21.10
2018-01-27T13:59:09.488Z,21.10
2018-01-27T14:01:36.296Z,21.10
2018-01-27T14:04:03.537Z,21.30
2018-01-27T14:06:30.555Z,20.70
2018-01-27T14:08:58.332Z,20.80
2018-01-27T14:17:19.728Z,20.80
2018-01-27T14:19:46.943Z,21.00
2018-01-27T14:22:27.430Z,20.90
2018-01-27T14:24:54.172Z,20.50
2018-01-27T14:27:20.884Z,20.40
2018-01-27T14:29:47.769Z,20.40
2018-01-27T14:32:14.822Z,20.40
2018-01-27T14:34:41.870Z,20.20
2018-01-27T14:37:08.828Z,20.30
2018-01-27T14:39:35.816Z,19.90
2018-01-27T14:42:03.271Z,19.50
2018-01-27T14:44:30.301Z,19.60
2018-01-27T14:46:57.040Z,19.80
2018-01-27T14:49:23.813Z,19.50
2018-01-27T14:51:51.203Z,19.40
2018-01-27T14:54:18.120Z,19.50
2018-01-27T14:56:45.493Z,19.50
2018-01-27T14:59:12.308Z,19.40
2018-01-27T15:04:36.211Z,19.20
2018-01-27T15:07:03.037Z,19.00
2018-01-27T15:09:30.155Z,19.00
2018-01-27T15:11:57.140Z,19.20
2018-01-27T15:14:24.195Z,19.00
2018-01-27T15:16:51.319Z,19.00
2018-01-27T15:19:18.224Z,19.10
2018-01-27T15:21:45.048Z,18.90
2018-01-27T15:24:12.103Z,18.80
2018-01-27T15:26:38.739Z,18.80
2018-01-27T15:29:05.581Z,18.90
2018-01-27T15:31:32.294Z,19.10
2018-01-27T15:33:59.104Z,18.50
2018-01-27T15:36:26.185Z,19.10
2018-01-27T15:38:53.207Z,19.30
2018-01-27T15:41:20.073Z,19.50
2018-01-27T15:43:46.790Z,20.10
2018-01-27T15:46:13.439Z,20.50
2018-01-27T15:48:41.002Z,21.40
2018-01-27T15:51:08.343Z,21.50
2018-01-27T15:53:35.303Z,21.50
2018-01-27T15:56:02.244Z,21.40
2018-01-27T15:58:29.009Z,21.60
2018-01-27T16:00:56.048Z,21.70
2018-01-27T16:03:22.911Z,21.90
2018-01-27T16:05:49.697Z,21.80
2018-01-27T16:08:16.869Z,21.70
2018-01-27T16:10:43.760Z,21.70
2018-01-27T16:13:10.652Z,21.60
2018-01-27T16:15:37.649Z,21.80
2018-01-27T16:18:04.512Z,21.70
2018-01-27T16:20:31.500Z,21.70
2018-01-27T16:22:58.607Z,21.80
2018-01-27T16:25:25.655Z,21.60
2018-01-27T16:27:52.415Z,21.60
2018-01-27T16:30:19.268Z,21.00
2018-01-27T16:32:46.002Z,20.60
2018-01-27T16:35:12.739Z,20.20
2018-01-27T16:37:39.728Z,20.20
2018-01-27T16:40:06.605Z,20.00
2018-01-27T16:42:33.600Z,20.40
2018-01-27T16:45:00.864Z,20.00
2018-01-27T16:47:27.789Z,19.90
2018-01-27T16:49:54.866Z,19.90
2018-01-27T16:52:21.942Z,19.90
2018-01-27T16:54:49.632Z,20.40
2018-01-27T16:57:16.618Z,20.00
2018-01-27T16:59:43.385Z,20.10
2018-01-27T17:02:10.104Z,20.70
2018-01-27T17:04:37.065Z,21.00
2018-01-27T17:07:03.863Z,21.10
2018-01-27T17:09:30.760Z,21.10
2018-01-27T17:11:57.765Z,21.30
2018-01-27T17:14:24.869Z,21.50
2018-01-27T17:16:51.713Z,21.70
2018-01-27T17:19:18.645Z,22.20
2018-01-27T17:21:45.957Z,22.20
2018-01-27T17:24:13.116Z,22.00
2018-01-27T17:26:40.261Z,22.10
2018-01-27T17:29:07.282Z,21.70
2018-01-27T17:31:34.079Z,21.70
2018-01-27T17:42:53.729Z,21.10
2018-01-27T17:45:20.784Z,21.10
2018-01-27T17:47:47.180Z,21.00
2018-01-27T17:50:13.717Z,21.00
2018-01-27T17:52:40.105Z,20.60
2018-01-27T17:55:06.513Z,20.50
2018-01-27T17:57:32.887Z,20.40
2018-01-27T17:59:59.477Z,20.30
2018-01-27T18:02:25.860Z,20.50
2018-01-27T18:04:52.514Z,20.40
2018-01-27T18:07:19.104Z,20.40
2018-01-27T18:09:45.509Z,20.40
2018-01-27T18:12:11.932Z,19.80
2018-01-27T18:14:38.303Z,19.80
2018-01-27T18:17:04.663Z,19.60
2018-01-27T18:19:31.029Z,19.90
2018-01-27T18:21:57.412Z,19.60
2018-01-27T18:24:24.669Z,19.90
2018-01-27T18:26:51.053Z,19.50
2018-01-27T18:29:17.441Z,19.50
2018-01-27T18:31:43.799Z,19.90
2018-01-27T18:34:10.173Z,19.50
2018-01-27T18:36:36.545Z,19.70
2018-01-27T18:39:03.024Z,19.80
2018-01-27T18:41:29.409Z,19.90
2018-01-27T18:43:55.788Z,19.50
2018-01-27T18:46:22.263Z,19.50
2018-01-27T18:48:48.690Z,19.90
2018-01-27T18:51:15.036Z,19.80
2018-01-27T18:53:41.427Z,19.50
2018-01-27T18:56:07.832Z,19.50
2018-01-27T18:58:34.223Z,19.70
2018-01-27T19:01:00.575Z,19.20
2018-01-27T19:03:26.953Z,19.60
2018-01-27T19:05:53.336Z,19.40
2018-01-27T19:08:19.700Z,19.40
2018-01-27T19:10:46.457Z,19.00
2018-01-27T19:13:12.890Z,19.20
2018-01-27T19:15:39.340Z,19.00
2018-01-27T19:18:05.751Z,18.90
2018-01-27T19:20:32.341Z,19.20
2018-01-27T19:22:58.976Z,19.00
2018-01-27T19:25:25.439Z,19.20
2018-01-27T19:27:52.006Z,19.30
2018-01-27T19:30:18.797Z,18.90
2018-01-27T19:32:45.317Z,18.90
2018-01-27T19:35:11.921Z,19.20
2018-01-27T19:37:38.306Z,18.80
2018-01-27T19:40:05.288Z,18.90
2018-01-27T19:42:32.418Z,18.90
2018-01-27T19:44:58.861Z,18.80
2018-01-27T19:47:25.259Z,18.80
2018-01-27T19:49:51.629Z,18.80
2018-01-27T19:52:18.126Z,18.50
2018-01-27T19:54:44.595Z,18.80
2018-01-27T19:57:10.957Z,18.40
2018-01-27T19:59:37.354Z,18.40
2018-01-27T20:02:03.826Z,18.40
2018-01-27T20:04:30.573Z,18.40
2018-01-27T20:06:56.961Z,18.90
2018-01-27T20:09:23.324Z,18.60
2018-01-27T20:11:49.712Z,18.30
2018-01-27T20:14:16.848Z,18.60
2018-01-27T20:16:43.644Z,18.40
2018-01-27T20:19:10.004Z,18.30
2018-01-27T20:21:36.419Z,18.40
2018-01-27T20:24:02.841Z,18.40
2018-01-27T20:26:29.208Z,18.30
2018-01-27T20:28:55.769Z,18.40
2018-01-27T20:31:22.184Z,18.70
2018-01-27T20:33:48.575Z,18.30
2018-01-27T20:36:16.536Z,18.30
2018-01-27T20:38:42.999Z,18.60
2018-01-27T20:41:10.597Z,18.50
2018-01-27T20:43:38.280Z,18.30
2018-01-27T20:46:04.685Z,18.90
2018-01-27T20:48:31.900Z,18.50
2018-01-27T20:50:58.297Z,18.40
2018-01-27T20:59:44.900Z,18.20
2018-01-27T21:02:11.275Z,18.10
2018-01-27T21:04:37.648Z,18.00
2018-01-27T21:07:04.097Z,18.00
2018-01-27T21:09:30.514Z,18.30
2018-01-27T21:11:56.938Z,18.50
2018-01-27T21:14:23.595Z,18.70
2018-01-27T21:16:50.015Z,18.30
2018-01-27T21:19:16.415Z,18.20
2018-01-27T21:24:39.337Z,18.30
2018-01-27T21:27:05.681Z,17.80
2018-01-27T21:29:32.078Z,18.00
2018-01-27T21:31:58.492Z,17.90
2018-01-27T21:34:25.679Z,17.90
2018-01-27T21:36:52.035Z,17.80
2018-01-27T21:39:18.382Z,18.10
2018-01-27T21:41:44.752Z,17.90
2018-01-27T21:44:11.154Z,17.80
2018-01-27T21:46:37.548Z,18.10
2018-01-27T21:49:04.034Z,18.00
2018-01-27T21:51:30.438Z,18.10
2018-01-27T21:53:56.845Z,18.10
2018-01-27T21:56:23.944Z,17.70
2018-01-27T21:58:50.299Z,18.00
2018-01-27T22:01:16.911Z,18.00
2018-01-27T22:03:43.306Z,17.90
2018-01-27T22:06:09.706Z,17.90
2018-01-27T22:08:36.177Z,18.00
2018-01-27T22:11:02.551Z,18.10
2018-01-27T22:13:28.939Z,18.00
2018-01-27T22:18:52.059Z,18.10
2018-01-27T22:21:18.472Z,18.00
2018-01-27T22:23:44.825Z,18.00
2018-01-27T22:26:12.128Z,18.10
2018-01-27T22:28:38.498Z,17.90
2018-01-27T22:31:04.880Z,17.90
2018-01-27T22:33:31.256Z,17.90
2018-01-27T22:35:57.812Z,18.30
2018-01-27T22:38:24.920Z,18.10
2018-01-27T22:40:51.310Z,17.80
2018-01-27T22:43:17.709Z,18.00
2018-01-27T22:45:44.068Z,18.10
2018-01-27T22:48:10.496Z,18.00
2018-01-27T22:50:36.873Z,17.90
2018-01-27T22:53:03.232Z,18.00
2018-01-27T22:55:29.629Z,17.90
2018-01-27T22:57:56.727Z,17.80
2018-01-27T23:03:37.057Z,17.90
2018-01-27T23:09:00.791Z,18.00
2018-01-27T23:11:27.171Z,17.90
2018-01-27T23:13:53.560Z,18.00
2018-01-27T23:16:19.907Z,18.10
2018-01-27T23:18:46.276Z,17.80
2018-01-27T23:21:12.624Z,18.00
2018-01-27T23:26:35.518Z,18.00
2018-01-27T23:29:15.127Z,18.00
2018-01-27T23:31:42.235Z,17.70
2018-01-27T23:34:08.629Z,18.00
2018-01-27T23:36:34.978Z,18.30
2018-01-27T23:39:01.375Z,18.40
2018-01-27T23:41:28.496Z,19.10
2018-01-27T23:43:54.829Z,19.00
2018-01-27T23:46:21.160Z,19.80
2018-01-27T23:48:47.523Z,19.60
2018-01-27T23:51:13.891Z,20.10
2018-01-27T23:53:40.995Z,20.90
2018-01-27T23:56:07.347Z,21.10
2018-01-27T23:58:33.709Z,21.20
